Time;durP1;ratioP1;P1;durP2;ratioP2;P2;SDS_P1;SDS_P2;PMS_P1;PMS_P2;Temp;Humidity;BMP_temperature;BMP_pressure;BME280_temperature;BME280_humidity;BME280_pressure;Samples;Min_cycle;Max_cycle;Signal;HPM_P1;HPM_P2
2021/12/23 00:00:10;;;;;;;;;;;;;;;-3.67;100.00;101431.88;5113713;28;19984;-68
2021/12/23 00:02:38;;;;;;;;;;;;;;;-3.51;100.00;101430.25;5113858;28;20284;-68
2021/12/23 00:05:05;;;;;;;;;;;;;;;-3.59;100.00;101431.50;5132059;28;19911;-68
2021/12/23 00:07:31;;;;;;;;;;;;;;;-3.45;100.00;101429.75;5113598;28;19911;-68
2021/12/23 00:10:05;;;;;;;;;;;;;;;-3.56;100.00;101431.66;5113760;28;19915;-69
2021/12/23 00:12:43;;;;;;;;;;;;;;;-3.48;100.00;101426.22;5132331;27;19975;-68
2021/12/23 00:15:21;;;;;;;;;;;;;;;-3.34;100.00;101427.78;5136393;27;20422;-68
2021/12/23 00:25:49;;;;;;;;;;;;;;;-3.73;100.00;101426.59;5101102;27;19919;-68
2021/12/23 00:28:14;;;;;;;;;;;;;;;-3.57;100.00;101426.63;5117497;27;19911;-68
2021/12/23 00:30:40;;;;;;;;;;;;;;;-3.07;100.00;101429.19;5136169;27;19911;-68
2021/12/23 00:33:05;;;;;;;;;;;;;;;-3.09;100.00;101434.06;5117341;27;19919;-68
2021/12/23 00:35:31;;;;;;;;;;;;;;;-3.08;100.00;101427.47;5117607;27;20313;-69
2021/12/23 00:38:04;;;;;;;;;;;;;;;-2.92;100.00;101419.97;5135818;27;19915;-69
2021/12/23 00:40:29;;;;;;;;;;;;;;;-3.10;100.00;101419.94;5117381;27;19961;-68
2021/12/23 00:42:56;;;;;;;;;;;;;;;-2.92;100.00;101427.44;5117461;27;20366;-69
2021/12/23 00:45:22;;;;;;;;;;;;;;;-3.24;100.00;101422.50;5135819;27;19946;-69
2021/12/23 00:47:48;;;;;;;;;;;;;;;-3.13;100.00;101423.91;5135603;27;20000;-69
2021/12/23 00:50:13;;;;;;;;;;;;;;;-3.23;100.00;101422.59;5135887;27;19946;-68
2021/12/23 00:52:54;;;;;;;;;;;;;;;-3.55;100.00;101425.94;5135436;27;20425;-69
2021/12/23 00:55:25;;;;;;;;;;;;;;;-3.48;100.00;101421.25;5117297;27;20322;-69
2021/12/23 00:57:50;;;;;;;;;;;;;;;-3.44;100.00;101428.09;5135276;27;19931;-68
2021/12/23 01:00:18;;;;;;;;;;;;;;;-3.10;100.00;101422.41;5135408;27;19915;-68
2021/12/23 01:02:49;;;;;;;;;;;;;;;-3.24;100.00;101427.47;5135372;27;19918;-69
2021/12/23 01:05:17;;;;;;;;;;;;;;;-3.35;100.00;101423.59;5135493;27;19918;-68
2021/12/23 01:07:43;;;;;;;;;;;;;;;-3.28;100.00;101420.63;5116763;27;19911;-68
2021/12/23 01:10:09;;;;;;;;;;;;;;;-3.45;100.00;101422.28;5116975;27;20401;-68
2021/12/23 01:12:49;;;;;;;;;;;;;;;-4.03;100.00;101420.00;5135084;27;19919;-68
2021/12/23 01:15:37;;;;;;;;;;;;;;;-3.38;100.00;101416.84;5116658;27;19911;-68
2021/12/23 01:18:19;;;;;;;;;;;;;;;-3.24;100.00;101420.88;5134800;27;20965;-68
2021/12/23 01:20:52;;;;;;;;;;;;;;;-3.48;100.00;101408.81;5134982;27;19975;-68
2021/12/23 01:23:20;;;;;;;;;;;;;;;-3.82;100.00;101422.00;5116704;27;19911;-68
2021/12/23 01:25:45;;;;;;;;;;;;;;;-3.66;100.00;101412.09;5133698;27;19911;-68
2021/12/23 01:28:12;;;;;;;;;;;;;;;-3.98;100.00;101421.13;5116521;27;20291;-68
2021/12/23 01:30:38;;;;;;;;;;;;;;;-3.58;100.00;101417.44;5116455;27;19911;-68
2021/12/23 01:33:06;;;;;;;;;;;;;;;-3.45;100.00;101412.34;5116307;27;20534;-68
2021/12/23 01:35:31;;;;;;;;;;;;;;;-3.95;100.00;101412.19;5116457;27;19918;-68
2021/12/23 01:37:57;;;;;;;;;;;;;;;-3.94;100.00;101416.38;5116326;27;19911;-68
2021/12/23 01:40:26;;;;;;;;;;;;;;;-3.90;100.00;101408.31;5116291;27;20019;-68
2021/12/23 01:42:51;;;;;;;;;;;;;;;-3.78;100.00;101411.44;5116242;27;19926;-68
2021/12/23 01:45:21;;;;;;;;;;;;;;;-3.86;100.00;101410.19;5134580;27;19911;-66
2021/12/23 01:47:47;;;;;;;;;;;;;;;-3.78;100.00;101411.44;5134487;27;20387;-66
2021/12/23 01:50:14;;;;;;;;;;;;;;;-3.96;100.00;101402.19;5134671;27;19918;-67
2021/12/23 01:52:40;;;;;;;;;;;;;;;-3.97;100.00;101402.97;5134258;27;20510;-66
2021/12/23 01:55:11;;;;;;;;;;;;;;;-3.84;100.00;101392.88;5116114;27;20014;-66
2021/12/23 01:57:37;;;;;;;;;;;;;;;-3.47;100.00;101390.66;5115582;27;19938;-68
2021/12/23 02:00:06;;;;;;;;;;;;;;;-3.37;100.00;101397.81;5134231;27;20375;-69
2021/12/23 02:02:37;;;;;;;;;;;;;;;-3.61;100.00;101394.94;5115787;27;19941;-66
2021/12/23 02:05:03;;;;;;;;;;;;;;;-3.80;100.00;101405.53;5134294;27;20018;-68
2021/12/23 02:07:29;;;;;;;;;;;;;;;-3.86;100.00;101399.44;5134168;27;19919;-68
2021/12/23 02:09:57;;;;;;;;;;;;;;;-3.66;100.00;101399.66;5134307;27;19915;-68
2021/12/23 02:12:24;;;;;;;;;;;;;;;-4.16;100.00;101398.63;5133988;27;20383;-68
2021/12/23 02:14:51;;;;;;;;;;;;;;;-4.41;100.00;101400.56;5134048;27;20399;-68
2021/12/23 02:17:17;;;;;;;;;;;;;;;-4.16;100.00;101397.81;5134199;27;19918;-68
2021/12/23 02:19:43;;;;;;;;;;;;;;;-4.17;100.00;101399.41;5115469;27;19911;-68
2021/12/23 02:22:08;;;;;;;;;;;;;;;-4.01;100.00;101399.47;5133952;27;19911;-68
2021/12/23 02:24:36;;;;;;;;;;;;;;;-4.40;100.00;101412.22;5115161;27;19936;-68
2021/12/23 02:27:01;;;;;;;;;;;;;;;-4.13;100.00;101402.91;5115359;27;20287;-68
2021/12/23 02:29:28;;;;;;;;;;;;;;;-4.32;100.00;101406.06;5115475;27;19919;-69
2021/12/23 02:31:55;;;;;;;;;;;;;;;-4.18;100.00;101404.31;5115115;27;20420;-68
2021/12/23 02:34:24;;;;;;;;;;;;;;;-4.01;100.00;101404.44;5114987;27;19938;-69
2021/12/23 02:36:54;;;;;;;;;;;;;;;-4.01;100.00;101408.53;5133361;27;20371;-69
2021/12/23 02:39:20;;;;;;;;;;;;;;;-4.20;100.00;101410.81;5133579;27;19911;-69
2021/12/23 02:41:45;;;;;;;;;;;;;;;-3.91;100.00;101406.63;5114878;27;20399;-69
2021/12/23 02:44:11;;;;;;;;;;;;;;;-3.81;100.00;101410.44;5133547;27;19918;-69
2021/12/23 02:46:37;;;;;;;;;;;;;;;-3.93;100.00;101413.13;5114892;27;19912;-68
2021/12/23 02:49:04;;;;;;;;;;;;;;;-3.80;100.00;101414.63;5133436;27;19980;-66
2021/12/23 02:51:30;;;;;;;;;;;;;;;-3.92;100.00;101409.88;5133281;27;19918;-66
2021/12/23 02:53:57;;;;;;;;;;;;;;;-3.86;100.00;101404.41;5133170;27;19911;-67
2021/12/23 02:56:23;;;;;;;;;;;;;;;-3.98;100.00;101412.03;5114924;27;19968;-66
2021/12/23 02:58:50;;;;;;;;;;;;;;;-4.13;100.00;101410.34;5132951;27;20006;-66
2021/12/23 03:01:19;;;;;;;;;;;;;;;-4.02;100.00;101411.81;5114569;27;19943;-67
2021/12/23 03:03:45;;;;;;;;;;;;;;;-3.79;100.00;101409.75;5133338;27;20379;-68
2021/12/23 03:06:12;;;;;;;;;;;;;;;-3.79;100.00;101404.78;5114570;27;20359;-69
2021/12/23 03:08:42;;;;;;;;;;;;;;;-3.79;100.00;101408.88;5133093;27;20002;-69
2021/12/23 03:11:09;;;;;;;;;;;;;;;-3.99;100.00;101409.47;5133267;27;19915;-68
2021/12/23 03:13:37;;;;;;;;;;;;;;;-3.88;100.00;101405.94;5114252;27;20323;-68
2021/12/23 03:16:03;;;;;;;;;;;;;;;-4.10;100.00;101408.06;5132794;27;19911;-69
2021/12/23 03:18:29;;;;;;;;;;;;;;;-3.70;100.00;101407.72;5114304;27;19918;-68
2021/12/23 03:20:55;;;;;;;;;;;;;;;-4.18;100.00;101416.72;5132706;27;20414;-68
2021/12/23 03:23:21;;;;;;;;;;;;;;;-4.12;100.00;101415.41;5114422;27;20280;-68
2021/12/23 03:25:47;;;;;;;;;;;;;;;-4.03;100.00;101420.00;5114090;27;19917;-68
2021/12/23 03:28:14;;;;;;;;;;;;;;;-4.21;100.00;101419.03;5114355;27;19940;-68
2021/12/23 03:30:42;;;;;;;;;;;;;;;-4.15;100.00;101427.66;5114086;27;19923;-68
2021/12/23 03:33:09;;;;;;;;;;;;;;;-3.89;100.00;101419.97;5113970;27;19957;-68
2021/12/23 03:35:36;;;;;;;;;;;;;;;-3.68;100.00;101417.75;5114253;27;19911;-68
2021/12/23 03:38:02;;;;;;;;;;;;;;;-4.02;100.00;101422.56;5114017;27;19911;-68
2021/12/23 03:40:29;;;;;;;;;;;;;;;-4.03;100.00;101415.91;5114065;27;19915;-68
2021/12/23 03:42:56;;;;;;;;;;;;;;;-4.04;100.00;101414.19;5114060;27;20309;-68
2021/12/23 03:45:23;;;;;;;;;;;;;;;-4.03;100.00;101408.47;5113819;27;19912;-68
2021/12/23 03:47:50;;;;;;;;;;;;;;;-3.99;100.00;101417.78;5131585;27;19919;-68
2021/12/23 03:50:22;;;;;;;;;;;;;;;-3.81;100.00;101421.25;5113991;27;19911;-68
2021/12/23 03:52:48;;;;;;;;;;;;;;;-3.82;100.00;101431.94;5132179;27;19922;-68
2021/12/23 03:55:16;;;;;;;;;;;;;;;-4.02;100.00;101421.75;5132386;27;19911;-69
2021/12/23 03:57:42;;;;;;;;;;;;;;;-4.10;100.00;101436.19;5113496;27;19916;-68
2021/12/23 04:00:15;;;;;;;;;;;;;;;-3.92;100.00;101434.69;5113785;27;19912;-69
2021/12/23 04:02:41;;;;;;;;;;;;;;;-4.03;100.00;101429.94;5113845;28;20295;-69
2021/12/23 04:05:08;;;;;;;;;;;;;;;-4.23;100.00;101431.34;5132164;28;20056;-69
2021/12/23 04:07:34;;;;;;;;;;;;;;;-3.96;100.00;101435.31;5113635;28;19950;-68
2021/12/23 04:10:02;;;;;;;;;;;;;;;-3.93;100.00;101442.94;5132144;28;19923;-68
2021/12/23 04:12:27;;;;;;;;;;;;;;;-3.97;100.00;101441.06;5113541;28;19938;-68
2021/12/23 04:14:53;;;;;;;;;;;;;;;-4.00;100.00;101449.97;5131912;28;20406;-69
2021/12/23 04:17:18;;;;;;;;;;;;;;;-4.08;100.00;101447.06;5113767;28;19917;-68
2021/12/23 04:19:46;;;;;;;;;;;;;;;-3.84;100.00;101433.47;5131897;28;19917;-69
2021/12/23 04:22:12;;;;;;;;;;;;;;;-4.03;100.00;101438.25;5132194;28;19911;-69
2021/12/23 04:24:39;;;;;;;;;;;;;;;-4.35;100.00;101449.66;5130992;28;19911;-70
2021/12/23 04:27:05;;;;;;;;;;;;;;;-3.96;100.00;101449.38;5092393;28;19912;-68
2021/12/23 04:29:33;;;;;;;;;;;;;;;-3.49;100.00;101451.84;5111119;28;19923;-71
2021/12/23 04:31:59;;;;;;;;;;;;;;;-3.94;100.00;101450.31;5111360;28;19912;-67
2021/12/23 04:34:26;;;;;;;;;;;;;;;-3.67;100.00;101452.63;5093028;28;20344;-67
2021/12/23 04:36:53;;;;;;;;;;;;;;;-3.68;100.00;101448.41;5111437;28;19918;-67
2021/12/23 04:39:19;;;;;;;;;;;;;;;-3.79;100.00;101451.97;5089747;28;19934;-70
2021/12/23 04:41:45;;;;;;;;;;;;;;;-3.85;100.00;101449.16;5111315;28;20395;-70
2021/12/23 04:44:12;;;;;;;;;;;;;;;-3.55;100.00;101448.28;5111067;28;19958;-67
2021/12/23 04:46:40;;;;;;;;;;;;;;;-3.64;100.00;101460.22;5110273;28;19998;-70
2021/12/23 04:49:11;;;;;;;;;;;;;;;-3.80;100.00;101456.84;5111408;28;19930;-70
2021/12/23 04:51:37;;;;;;;;;;;;;;;-3.73;100.00;101459.75;5092909;28;19912;-71
2021/12/23 04:54:02;;;;;;;;;;;;;;;-3.75;100.00;101458.81;5110040;28;19919;-69
2021/12/23 04:56:28;;;;;;;;;;;;;;;-3.36;100.00;101457.53;5111094;28;19918;-70
2021/12/23 04:58:54;;;;;;;;;;;;;;;-3.56;100.00;101463.09;5111475;28;19994;-69
2021/12/23 05:01:21;;;;;;;;;;;;;;;-3.52;100.00;101460.84;5113921;28;19912;-70
2021/12/23 05:03:47;;;;;;;;;;;;;;;-3.64;100.00;101467.66;5096588;28;20285;-70
2021/12/23 05:06:15;;;;;;;;;;;;;;;-3.37;100.00;101459.94;5114386;28;19919;-69
2021/12/23 05:08:42;;;;;;;;;;;;;;;-3.81;100.00;101458.50;5095208;28;19911;-70
2021/12/23 05:11:10;;;;;;;;;;;;;;;-3.46;100.00;101456.97;5114943;28;20014;-70
2021/12/23 05:13:37;;;;;;;;;;;;;;;-3.70;100.00;101464.00;5114475;28;19916;-72
2021/12/23 05:16:02;;;;;;;;;;;;;;;-3.78;100.00;101462.72;5113575;28;19912;-72
2021/12/23 05:18:28;;;;;;;;;;;;;;;-3.41;100.00;101466.38;5113998;28;19919;-69
2021/12/23 05:20:54;;;;;;;;;;;;;;;-3.77;100.00;101465.31;5113862;28;19969;-67
2021/12/23 05:23:19;;;;;;;;;;;;;;;-3.55;100.00;101468.16;5113824;28;19911;-68
2021/12/23 05:25:45;;;;;;;;;;;;;;;-3.55;100.00;101465.69;5114351;28;19936;-68
2021/12/23 05:28:11;;;;;;;;;;;;;;;-3.69;100.00;101464.09;5114385;28;19951;-67
2021/12/23 05:30:38;;;;;;;;;;;;;;;-3.53;100.00;101463.28;5113236;28;19915;-67
2021/12/23 05:33:05;;;;;;;;;;;;;;;-3.54;100.00;101464.91;5114060;28;20387;-71
2021/12/23 05:35:32;;;;;;;;;;;;;;;-3.83;100.00;101457.56;5095769;28;19915;-66
2021/12/23 05:38:05;;;;;;;;;;;;;;;-3.39;100.00;101459.88;5112801;28;20375;-71
2021/12/23 05:40:32;;;;;;;;;;;;;;;-3.74;100.00;101460.50;5114236;28;19919;-68
2021/12/23 05:42:58;;;;;;;;;;;;;;;-3.57;100.00;101462.25;5095549;28;19922;-68
2021/12/23 05:45:25;;;;;;;;;;;;;;;-3.60;100.00;101464.56;5095234;28;20057;-68
2021/12/23 05:47:51;;;;;;;;;;;;;;;-3.45;100.00;101463.66;5113682;28;19922;-68
2021/12/23 05:50:19;;;;;;;;;;;;;;;-3.48;100.00;101470.94;5113080;28;19912;-67
2021/12/23 05:52:44;;;;;;;;;;;;;;;-3.19;100.00;101460.88;5112651;28;19915;-69
2021/12/23 05:55:11;;;;;;;;;;;;;;;-3.45;100.00;101468.63;5112410;28;19973;-69
2021/12/23 05:57:36;;;;;;;;;;;;;;;-3.38;100.00;101466.53;5112668;28;20034;-68
2021/12/23 06:00:05;;;;;;;;;;;;;;;-3.58;100.00;101468.00;5094377;28;19959;-68
2021/12/23 06:02:35;;;;;;;;;;;;;;;-3.49;100.00;101479.19;5113160;28;19911;-68
2021/12/23 06:05:01;;;;;;;;;;;;;;;-3.42;100.00;101482.06;5113272;28;19916;-68
2021/12/23 06:07:26;;;;;;;;;;;;;;;-3.58;100.00;101482.03;5094442;28;20003;-68
2021/12/23 06:09:52;;;;;;;;;;;;;;;-3.58;100.00;101479.56;5093750;28;19918;-68
2021/12/23 06:12:17;;;;;;;;;;;;;;;-3.65;100.00;101484.97;5111569;28;19920;-67
2021/12/23 06:14:45;;;;;;;;;;;;;;;-3.39;100.00;101491.31;5112369;28;19918;-68
2021/12/23 06:17:10;;;;;;;;;;;;;;;-3.52;100.00;101498.13;5112764;28;20387;-67
2021/12/23 06:19:36;;;;;;;;;;;;;;;-3.43;100.00;101497.75;5112755;28;19958;-68
2021/12/23 06:22:02;;;;;;;;;;;;;;;-3.43;100.00;101499.38;5112845;28;19958;-68
2021/12/23 06:24:29;;;;;;;;;;;;;;;-3.53;100.00;101505.50;5113157;28;20252;-68
2021/12/23 06:26:54;;;;;;;;;;;;;;;-3.58;100.00;101502.78;5094894;28;20019;-68
2021/12/23 06:29:20;;;;;;;;;;;;;;;-3.30;100.00;101501.72;5113436;28;20402;-68
2021/12/23 06:31:46;;;;;;;;;;;;;;;-3.37;100.00;101503.06;5113195;28;20331;-68
2021/12/23 06:34:17;;;;;;;;;;;;;;;-3.58;100.00;101505.25;5094922;28;20410;-68
2021/12/23 06:36:44;;;;;;;;;;;;;;;-3.32;100.00;101508.25;5113132;28;19919;-68
2021/12/23 06:39:09;;;;;;;;;;;;;;;-3.34;100.00;101510.66;5112948;28;19999;-68
2021/12/23 06:41:35;;;;;;;;;;;;;;;-2.56;100.00;101513.84;5113609;28;19953;-69
2021/12/23 06:44:00;;;;;;;;;;;;;;;-0.45;100.00;101500.13;5112915;28;20054;-68
2021/12/23 06:46:27;;;;;;;;;;;;;;;-0.30;100.00;101498.28;5112869;28;19918;-68
2021/12/23 06:48:53;;;;;;;;;;;;;;;-2.00;100.00;101516.56;5112922;28;19912;-69
2021/12/23 06:51:20;;;;;;;;;;;;;;;-2.74;100.00;101512.91;5112789;28;19918;-69
2021/12/23 06:53:46;;;;;;;;;;;;;;;-1.77;100.00;101506.88;5112768;28;19912;-67
2021/12/23 06:56:13;;;;;;;;;;;;;;;2.94;100.00;101485.91;5094181;28;19918;-68
2021/12/23 06:58:39;;;;;;;;;;;;;;;3.12;88.38;101489.75;5112255;28;19922;-68
2021/12/23 07:01:05;;;;;;;;;;;;;;;0.35;92.70;101501.69;5094371;28;19951;-68
2021/12/23 07:03:50;;;;;;;;;;;;;;;-0.63;100.00;101500.25;5094098;28;19961;-67
2021/12/23 07:06:20;;;;;;;;;;;;;;;-1.59;100.00;101498.50;5093974;28;19912;-68
2021/12/23 07:08:45;;;;;;;;;;;;;;;-1.47;100.00;101499.94;5112485;28;19919;-68
2021/12/23 07:11:11;;;;;;;;;;;;;;;-1.76;100.00;101490.25;5094126;28;19915;-67
2021/12/23 07:13:36;;;;;;;;;;;;;;;-1.69;100.00;101496.38;5112212;28;20394;-68
2021/12/23 07:16:02;;;;;;;;;;;;;;;-2.09;100.00;101498.69;5112331;28;19912;-68
2021/12/23 07:18:27;;;;;;;;;;;;;;;-1.40;100.00;101496.03;5112141;28;19911;-68
2021/12/23 07:20:53;;;;;;;;;;;;;;;-1.54;100.00;101494.56;5093799;28;20002;-68
2021/12/23 07:23:18;;;;;;;;;;;;;;;-1.78;100.00;101492.69;5111251;28;19915;-68
2021/12/23 07:25:44;;;;;;;;;;;;;;;-1.67;100.00;101493.19;5111914;28;19919;-68
2021/12/23 07:28:09;;;;;;;;;;;;;;;-1.21;100.00;101489.44;5112107;28;19934;-68
2021/12/23 07:30:34;;;;;;;;;;;;;;;-1.82;100.00;101498.31;5093598;28;20012;-68
2021/12/23 07:33:00;;;;;;;;;;;;;;;-1.39;100.00;101496.13;5093485;28;20387;-68
2021/12/23 07:35:25;;;;;;;;;;;;;;;-1.47;100.00;101501.56;5093739;28;20409;-68
2021/12/23 07:37:51;;;;;;;;;;;;;;;-1.73;100.00;101504.50;5093545;28;19911;-68
2021/12/23 07:40:17;;;;;;;;;;;;;;;-1.42;100.00;101500.09;5112121;28;19919;-68
2021/12/23 07:42:53;;;;;;;;;;;;;;;-1.14;100.00;101503.91;5111860;28;19922;-68
2021/12/23 07:45:24;;;;;;;;;;;;;;;-2.08;100.00;101513.69;5093484;28;19911;-67
2021/12/23 07:47:49;;;;;;;;;;;;;;;-2.29;100.00;101517.66;5093437;28;19916;-68
2021/12/23 07:50:14;;;;;;;;;;;;;;;-1.74;100.00;101506.13;5111789;28;19911;-67
2021/12/23 07:52:40;;;;;;;;;;;;;;;-1.00;100.00;101506.97;5093273;28;19980;-68
2021/12/23 07:55:05;;;;;;;;;;;;;;;-1.14;100.00;101503.03;5111691;28;19911;-68
2021/12/23 07:57:31;;;;;;;;;;;;;;;-1.21;100.00;101503.56;5111375;28;19954;-68
2021/12/23 07:59:58;;;;;;;;;;;;;;;-1.56;100.00;101506.13;5093277;28;19911;-67
2021/12/23 08:02:23;;;;;;;;;;;;;;;-1.16;100.00;101507.09;5111544;28;19938;-68
2021/12/23 08:04:48;;;;;;;;;;;;;;;-1.14;100.00;101508.88;5111304;28;20371;-68
2021/12/23 08:07:14;;;;;;;;;;;;;;;-1.55;100.00;101518.66;5111674;28;19919;-67
2021/12/23 08:09:39;;;;;;;;;;;;;;;-1.70;100.00;101515.47;5093159;28;19980;-67
2021/12/23 08:12:05;;;;;;;;;;;;;;;-1.24;100.00;101513.41;5093178;28;20427;-68
2021/12/23 08:14:31;;;;;;;;;;;;;;;-1.43;100.00;101516.72;5093206;28;19923;-68
2021/12/23 08:16:56;;;;;;;;;;;;;;;-1.37;100.00;101521.13;5111316;28;19912;-68
2021/12/23 08:19:22;;;;;;;;;;;;;;;-1.51;100.00;101519.66;5093152;28;20310;-68
2021/12/23 08:21:47;;;;;;;;;;;;;;;-1.10;100.00;101520.69;5093193;28;19919;-68
2021/12/23 08:24:12;;;;;;;;;;;;;;;-1.37;100.00;101526.13;5111347;28;19977;-68
2021/12/23 08:26:43;;;;;;;;;;;;;;;-1.23;100.00;101525.94;5093217;28;19964;-67
2021/12/23 08:29:09;;;;;;;;;;;;;;;-2.09;100.00;101526.94;5092932;28;19912;-68
2021/12/23 08:31:34;;;;;;;;;;;;;;;-0.97;100.00;101519.59;5092999;28;19919;-68
2021/12/23 08:34:00;;;;;;;;;;;;;;;-0.89;100.00;101518.25;5112513;28;19919;-68
2021/12/23 08:36:25;;;;;;;;;;;;;;;-0.96;100.00;101514.66;5115330;28;20011;-68
2021/12/23 08:38:51;;;;;;;;;;;;;;;-1.13;100.00;101518.06;5096902;28;20006;-67
2021/12/23 08:41:17;;;;;;;;;;;;;;;-1.56;100.00;101518.56;5097216;28;19916;-68
2021/12/23 08:43:44;;;;;;;;;;;;;;;-1.84;100.00;101517.31;5115136;28;19922;-68
2021/12/23 08:46:09;;;;;;;;;;;;;;;-1.41;100.00;101509.31;5097014;28;19911;-68
2021/12/23 08:48:35;;;;;;;;;;;;;;;-1.46;100.00;101500.75;5096656;28;19935;-68
2021/12/23 08:51:00;;;;;;;;;;;;;;;-1.22;100.00;101496.84;5096753;28;20383;-68
2021/12/23 08:53:25;;;;;;;;;;;;;;;-0.59;100.00;101492.09;5096800;28;19912;-68
2021/12/23 08:55:51;;;;;;;;;;;;;;;-0.98;100.00;101490.44;5114956;28;19919;-68
2021/12/23 08:58:16;;;;;;;;;;;;;;;-1.22;100.00;101479.41;5114833;28;19923;-67
2021/12/23 09:00:42;;;;;;;;;;;;;;;-0.90;100.00;101479.13;5114746;28;19919;-69
2021/12/23 09:03:08;;;;;;;;;;;;;;;-0.64;100.00;101485.22;5096522;28;19922;-68
2021/12/23 09:05:39;;;;;;;;;;;;;;;-0.98;100.00;101481.31;5114863;28;19958;-68
2021/12/23 09:08:05;;;;;;;;;;;;;;;-1.04;100.00;101476.06;5096277;28;19919;-68
2021/12/23 09:10:31;;;;;;;;;;;;;;;-0.75;100.00;101473.94;5096356;28;20021;-68
2021/12/23 09:12:57;;;;;;;;;;;;;;;-0.81;100.00;101473.69;5096380;28;20406;-68
2021/12/23 09:15:22;;;;;;;;;;;;;;;-0.91;100.00;101467.44;5096203;28;19965;-67
2021/12/23 09:17:48;;;;;;;;;;;;;;;-0.96;100.00;101464.78;5096169;28;19999;-68
2021/12/23 09:20:14;;;;;;;;;;;;;;;-0.83;100.00;101453.63;5114486;28;19992;-67
2021/12/23 09:22:40;;;;;;;;;;;;;;;-0.54;100.00;101440.72;5095786;28;19919;-68
2021/12/23 09:25:11;;;;;;;;;;;;;;;-0.65;100.00;101438.59;5114411;28;20437;-68
2021/12/23 09:28:29;;;;;;;;;;;;;;;-0.38;100.00;101437.16;5114332;28;19923;-68
2021/12/23 09:33:06;;;;;;;;;;;;;;;0.15;100.00;101422.56;5114416;28;19961;-67
2021/12/23 09:35:32;;;;;;;;;;;;;;;-0.02;100.00;101419.44;5114342;28;19912;-68
2021/12/23 09:37:58;;;;;;;;;;;;;;;-0.29;100.00;101420.03;5095839;28;19919;-68
2021/12/23 09:40:24;;;;;;;;;;;;;;;0.02;100.00;101417.91;5095707;28;19911;-68
2021/12/23 09:42:50;;;;;;;;;;;;;;;0.24;100.00;101404.56;5095903;28;19964;-68
2021/12/23 09:45:18;;;;;;;;;;;;;;;0.18;100.00;101401.84;5112979;28;19918;-68
2021/12/23 09:47:45;;;;;;;;;;;;;;;0.56;100.00;101404.91;5095716;28;19934;-68
2021/12/23 09:50:12;;;;;;;;;;;;;;;0.47;100.00;101403.72;5095560;28;20313;-67
2021/12/23 09:52:40;;;;;;;;;;;;;;;0.73;100.00;101398.00;5113684;28;19918;-67
2021/12/23 09:55:06;;;;;;;;;;;;;;;0.40;95.53;101399.28;5113807;28;20359;-67
2021/12/23 09:57:31;;;;;;;;;;;;;;;0.48;97.42;101392.91;5095052;28;19911;-67
2021/12/23 09:59:57;;;;;;;;;;;;;;;0.44;100.00;101379.47;5095439;28;19916;-68
2021/12/23 10:02:22;;;;;;;;;;;;;;;0.71;100.00;101387.09;5095460;28;19959;-68
2021/12/23 10:04:48;;;;;;;;;;;;;;;0.64;96.72;101385.16;5113342;28;19912;-68
2021/12/23 10:07:13;;;;;;;;;;;;;;;0.79;98.18;101380.69;5113639;28;19938;-68
2021/12/23 10:09:51;;;;;;;;;;;;;;;0.30;100.00;101374.78;5095232;28;19911;-68
2021/12/23 10:31:07;;;;;;;;;;;;;;;1.01;100.00;101355.56;5113562;28;19941;-68
2021/12/23 10:33:47;;;;;;;;;;;;;;;1.12;100.00;101348.41;5094537;28;19981;-68
2021/12/23 10:38:50;;;;;;;;;;;;;;;1.49;99.84;101338.72;5113096;28;19916;-68
2021/12/23 10:41:17;;;;;;;;;;;;;;;1.32;96.64;101342.38;5113482;28;19916;-68
2021/12/23 10:43:43;;;;;;;;;;;;;;;1.39;97.15;101336.72;5112632;28;19962;-68
2021/12/23 10:46:23;;;;;;;;;;;;;;;1.23;97.52;101335.41;5113004;28;19912;-68
2021/12/23 10:49:05;;;;;;;;;;;;;;;1.38;96.16;101330.03;5112825;28;19915;-68
2021/12/23 10:51:57;;;;;;;;;;;;;;;1.31;94.21;101331.50;5094415;28;19915;-68
2021/12/23 10:58:00;;;;;;;;;;;;;;;1.67;92.08;101320.06;5094240;28;19919;-68
2021/12/23 11:00:20;;;;;;;;;;;;;;;1.80;95.03;101312.91;5112549;28;19968;-67
2021/12/23 11:02:57;;;;;;;;;;;;;;;1.81;92.50;101314.59;5094413;28;19918;-68
2021/12/23 11:05:28;;;;;;;;;;;;;;;1.89;87.00;101306.50;5112591;28;20342;-68
2021/12/23 11:08:06;;;;;;;;;;;;;;;1.76;88.87;101306.97;5112374;28;19918;-68
2021/12/23 11:36:02;;;;;;;;;;;;;;;2.36;79.14;101267.66;5112406;28;19923;-68
2021/12/23 11:38:29;;;;;;;;;;;;;;;2.48;79.18;101260.44;5110260;28;19935;-68
2021/12/23 11:40:59;;;;;;;;;;;;;;;2.73;77.58;101271.94;5112058;28;19912;-68
2021/12/23 11:45:53;;;;;;;;;;;;;;;2.71;80.96;101259.38;5111974;28;19911;-68
2021/12/23 11:48:18;;;;;;;;;;;;;;;2.75;76.96;101261.13;5093554;28;20026;-68
2021/12/23 11:51:06;;;;;;;;;;;;;;;2.83;77.13;101262.16;5093467;28;20387;-68
2021/12/23 11:53:31;;;;;;;;;;;;;;;2.77;72.14;101249.47;5093455;28;20019;-68
2021/12/23 11:55:57;;;;;;;;;;;;;;;2.61;74.07;101247.41;5093362;28;19918;-68
2021/12/23 11:58:25;;;;;;;;;;;;;;;2.71;72.30;101240.94;5093086;28;19980;-68
2021/12/23 12:01:04;;;;;;;;;;;;;;;2.73;70.74;101237.66;5111642;28;19968;-68
2021/12/23 12:03:29;;;;;;;;;;;;;;;2.90;70.23;101236.38;5093243;28;19974;-68
2021/12/23 12:06:11;;;;;;;;;;;;;;;3.05;70.50;101230.88;5093269;28;19918;-68
2021/12/23 12:08:36;;;;;;;;;;;;;;;3.20;68.25;101238.72;5110936;28;19919;-68
2021/12/23 12:11:18;;;;;;;;;;;;;;;2.75;67.22;101235.19;5111733;28;19915;-68
2021/12/23 12:13:44;;;;;;;;;;;;;;;3.29;65.93;101231.38;5111368;28;19916;-67
2021/12/23 12:16:29;;;;;;;;;;;;;;;2.91;68.16;101225.50;5093237;28;20387;-68
2021/12/23 12:18:54;;;;;;;;;;;;;;;3.30;66.61;101233.94;5111559;28;19976;-68
2021/12/23 12:21:21;;;;;;;;;;;;;;;3.58;64.70;101237.03;5092992;28;19912;-68
2021/12/23 12:23:46;;;;;;;;;;;;;;;3.66;66.50;101238.88;5093123;28;19950;-68
2021/12/23 12:26:21;;;;;;;;;;;;;;;3.36;66.60;101230.72;5093005;28;19916;-67
2021/12/23 12:28:47;;;;;;;;;;;;;;;3.30;67.34;101228.06;5093101;28;20244;-68
2021/12/23 12:31:17;;;;;;;;;;;;;;;3.35;66.50;101222.31;5093084;28;19966;-68
2021/12/23 12:33:54;;;;;;;;;;;;;;;3.47;63.35;101225.09;5111070;28;19912;-68
2021/12/23 12:36:20;;;;;;;;;;;;;;;3.19;63.91;101225.31;5111255;28;19912;-68
2021/12/23 12:38:55;;;;;;;;;;;;;;;3.54;64.40;101223.56;5111437;28;19912;-68
2021/12/23 12:41:26;;;;;;;;;;;;;;;3.43;65.02;101218.31;5093218;28;19915;-68
2021/12/23 12:43:59;;;;;;;;;;;;;;;3.31;63.94;101229.75;5111120;28;19927;-68
2021/12/23 12:49:22;;;;;;;;;;;;;;;3.80;62.34;101224.06;5111495;28;19911;-68
2021/12/23 12:51:48;;;;;;;;;;;;;;;3.33;64.18;101228.97;5092905;28;20010;-68
2021/12/23 12:54:16;;;;;;;;;;;;;;;3.33;63.86;101228.13;5111032;28;20011;-67
2021/12/23 12:56:46;;;;;;;;;;;;;;;3.92;61.74;101222.63;5111182;28;19912;-68
2021/12/23 12:59:12;;;;;;;;;;;;;;;3.64;62.31;101210.34;5110852;28;19915;-68
2021/12/23 13:01:41;;;;;;;;;;;;;;;4.49;63.42;101202.69;5110915;28;19919;-68
2021/12/23 13:04:19;;;;;;;;;;;;;;;4.68;61.51;101193.72;5092910;28;20073;-68
2021/12/23 13:06:44;;;;;;;;;;;;;;;5.74;59.69;101180.88;5092679;28;19919;-68
2021/12/23 13:09:14;;;;;;;;;;;;;;;5.71;56.35;101175.78;5111027;28;19915;-68
2021/12/23 13:11:44;;;;;;;;;;;;;;;5.46;57.54;101173.81;5111432;28;20442;-68
2021/12/23 13:14:18;;;;;;;;;;;;;;;4.79;59.79;101167.91;5110685;28;19916;-68
2021/12/23 13:16:54;;;;;;;;;;;;;;;3.86;60.83;101182.28;5110795;28;19912;-68
2021/12/23 13:19:22;;;;;;;;;;;;;;;3.05;64.38;101190.69;5092451;28;19912;-69
2021/12/23 13:21:48;;;;;;;;;;;;;;;2.85;65.46;101187.72;5113126;28;20295;-68
2021/12/23 13:24:15;;;;;;;;;;;;;;;2.62;66.49;101191.34;5114298;28;20413;-67
2021/12/23 13:26:40;;;;;;;;;;;;;;;2.53;68.17;101183.63;5114401;28;19915;-68
2021/12/23 13:29:08;;;;;;;;;;;;;;;2.44;67.68;101189.25;5096029;28;20390;-68
2021/12/23 13:31:35;;;;;;;;;;;;;;;2.40;67.52;101195.00;5095892;28;20398;-68
2021/12/23 13:34:05;;;;;;;;;;;;;;;2.59;66.23;101191.31;5114320;28;19980;-68
2021/12/23 13:36:37;;;;;;;;;;;;;;;3.08;64.12;101184.06;5095980;28;20417;-68
2021/12/23 13:39:14;;;;;;;;;;;;;;;3.35;62.90;101179.59;5095760;28;19919;-68